Terminal Aerodrome Forecast
Issued by NWS Jackson, MS

Home | Current Version | Previous Version | Text Only | Print | Product List | Glossary On
Versions: 1 2 3 4 5 6 7 8 9 10 11
678
FTUS44 KMEG 090522
TAFTUP
TAF
KTUP 090522Z 0906/1006 31012G18KT P6SM FEW040 OVC070
     FM100000 33007KT P6SM FEW070 SCT250=

USA.gov is the U.S. government's official web portal to all federal, state and local government web resources and services.